Time;durP1;ratioP1;P1;durP2;ratioP2;P2;SDS_P1;SDS_P2;PMS_P1;PMS_P2;Temp;Humidity;BMP_temperature;BMP_pressure;BME280_temperature;BME280_humidity;BME280_pressure;Samples;Min_cycle;Max_cycle;Signal;HPM_P1;HPM_P2
2023/11/10 00:00:12;;;;;;;17.17;9.18;;;;;;;5.94;78.25;99596.16;1784917;79;25596;-52
2023/11/10 00:02:43;;;;;;;14.20;9.85;;;;;;;5.91;78.35;99595.42;1784918;79;25626;-52
2023/11/10 00:05:11;;;;;;;17.92;10.15;;;;;;;5.90;78.52;99597.29;1785076;80;25475;-51
2023/11/10 00:07:44;;;;;;;14.65;9.78;;;;;;;5.88;78.72;99594.67;1784796;79;27636;-52
2023/11/10 00:10:09;;;;;;;17.07;9.80;;;;;;;5.86;78.57;99588.25;1783770;80;26033;-54
2023/11/10 00:12:37;;;;;;;16.65;9.80;;;;;;;5.85;78.61;99587.20;1785060;80;25420;-53
2023/11/10 00:15:07;;;;;;;53.87;32.93;;;;;;;5.83;78.59;99590.17;1784825;80;25578;-58
2023/11/10 00:17:33;;;;;;;194.00;133.40;;;;;;;5.82;79.06;99592.59;1785064;80;25399;-58
2023/11/10 00:20:00;;;;;;;21.93;11.33;;;;;;;5.87;79.10;99577.74;1784861;79;28375;-52
2023/11/10 00:22:31;;;;;;;19.87;10.38;;;;;;;5.90;79.15;99582.53;1784790;80;25392;-54
2023/11/10 00:24:57;;;;;;;14.45;8.45;;;;;;;5.88;78.76;99583.93;1784955;79;25472;-53
2023/11/10 00:27:23;;;;;;;14.50;9.93;;;;;;;5.86;78.90;99586.11;1784824;80;26282;-53
2023/11/10 00:29:50;;;;;;;15.18;9.53;;;;;;;5.83;78.74;99582.67;1784881;79;25460;-51
2023/11/10 00:32:18;;;;;;;20.75;9.75;;;;;;;5.78;79.02;99572.26;1784856;80;28380;-52
2023/11/10 00:34:45;;;;;;;17.48;9.65;;;;;;;5.75;79.04;99564.79;1784773;80;25416;-52
2023/11/10 00:37:13;;;;;;;15.88;9.48;;;;;;;5.73;79.25;99562.95;1762979;80;25558;-52
2023/11/10 00:39:41;;;;;;;17.32;9.85;;;;;;;5.72;79.33;99567.27;1784801;80;25625;-52
2023/11/10 00:42:08;;;;;;;14.00;9.20;;;;;;;5.70;79.29;99561.41;1784886;79;25571;-52
2023/11/10 00:44:36;;;;;;;16.07;9.85;;;;;;;5.69;79.18;99558.48;1784832;80;28378;-53
2023/11/10 00:47:05;;;;;;;15.75;9.85;;;;;;;5.66;79.40;99556.39;1784785;80;25591;-55
2023/11/10 00:49:31;;;;;;;14.90;9.53;;;;;;;5.63;79.43;99551.60;1784814;80;25380;-52
2023/11/10 00:51:58;;;;;;;15.53;9.65;;;;;;;5.60;79.63;99548.42;1784881;80;25617;-56
2023/11/10 00:54:24;;;;;;;16.65;9.60;;;;;;;5.58;79.55;99546.59;1784878;80;25628;-53
2023/11/10 00:56:52;;;;;;;13.05;9.00;;;;;;;5.57;79.54;99540.17;1784981;79;27908;-52
2023/11/10 00:59:21;;;;;;;17.10;9.93;;;;;;;5.55;80.21;99543.14;1784743;79;25535;-52
2023/11/10 01:01:47;;;;;;;17.15;9.70;;;;;;;5.53;80.09;99537.80;1784862;79;25560;-54
2023/11/10 01:04:14;;;;;;;14.83;9.70;;;;;;;5.52;80.12;99541.59;1784024;80;25614;-53
2023/11/10 01:06:42;;;;;;;16.02;9.68;;;;;;;5.51;80.52;99542.12;1784155;79;25656;-52
2023/11/10 01:09:12;;;;;;;15.60;9.18;;;;;;;5.50;80.43;99536.52;1784683;79;28153;-52
2023/11/10 01:11:39;;;;;;;14.23;9.15;;;;;;;5.50;80.91;99529.00;1784778;79;25637;-52
2023/11/10 01:14:08;;;;;;;16.02;9.10;;;;;;;5.48;80.66;99530.63;1784949;79;25407;-52
2023/11/10 01:16:36;;;;;;;18.05;9.30;;;;;;;5.46;80.54;99536.05;1784793;80;25726;-54
2023/11/10 01:19:05;;;;;;;17.65;8.75;;;;;;;5.43;80.85;99527.50;1784855;80;25423;-53
2023/11/10 01:21:32;;;;;;;15.10;8.50;;;;;;;5.41;80.74;99521.64;1784979;80;28131;-51
2023/11/10 01:24:01;;;;;;;14.10;9.00;;;;;;;5.39;81.12;99521.67;1784733;80;25609;-52
2023/11/10 01:26:30;;;;;;;20.27;9.50;;;;;;;5.38;81.06;99514.70;1785031;79;25415;-53
2023/11/10 01:28:58;;;;;;;12.93;8.05;;;;;;;5.38;81.29;99508.00;1784801;79;25634;-52
2023/11/10 01:31:26;;;;;;;13.75;9.23;;;;;;;5.37;81.57;99515.81;1784855;79;25548;-52
2023/11/10 01:33:55;;;;;;;14.63;8.63;;;;;;;5.37;81.95;99506.42;1785104;79;28307;-54
2023/11/10 01:36:22;;;;;;;13.50;8.50;;;;;;;5.36;81.79;99502.95;1784994;80;25965;-51
2023/11/10 01:38:51;;;;;;;14.33;8.93;;;;;;;5.37;81.66;99501.84;1784931;79;25531;-51
2023/11/10 01:41:20;;;;;;;14.58;8.70;;;;;;;5.36;81.68;99502.95;1784771;80;25606;-51
2023/11/10 01:43:47;;;;;;;13.08;8.78;;;;;;;5.37;82.10;99499.16;1784970;80;25558;-51
2023/11/10 01:46:43;;;;;;;12.73;8.08;;;;;;;5.38;82.13;99502.11;1784863;80;27334;-54
2023/11/10 01:49:15;;;;;;;17.17;8.68;;;;;;;5.38;82.00;99500.77;1784793;79;25553;-55
2023/11/10 01:51:45;;;;;;;12.68;8.30;;;;;;;5.39;82.08;99496.98;1784897;79;25560;-54
2023/11/10 01:54:20;;;;;;;14.50;8.70;;;;;;;5.40;82.44;99488.41;1785006;79;25686;-52
2023/11/10 01:56:52;;;;;;;12.90;7.75;;;;;;;5.41;82.24;99492.66;1784956;79;25442;-53
2023/11/10 01:59:20;;;;;;;13.62;8.33;;;;;;;5.41;82.22;99489.98;1785039;80;27312;-52
2023/11/10 02:01:49;;;;;;;10.60;7.85;;;;;;;5.41;82.41;99485.44;1784797;79;25454;-55
2023/11/10 02:04:18;;;;;;;14.10;8.03;;;;;;;5.42;82.37;99492.92;1784862;79;25533;-55
2023/11/10 02:06:47;;;;;;;12.60;8.05;;;;;;;5.42;82.80;99488.91;1784940;79;26244;-54
2023/11/10 02:09:16;;;;;;;12.05;7.87;;;;;;;5.43;82.86;99481.09;1782337;80;25378;-51
2023/11/10 02:11:42;;;;;;;11.45;7.55;;;;;;;5.45;82.69;99480.27;1779688;80;27328;-52
2023/11/10 02:14:13;;;;;;;12.25;8.03;;;;;;;5.45;82.45;99481.62;1779617;80;25541;-52
2023/11/10 02:16:41;;;;;;;14.30;8.25;;;;;;;5.46;82.60;99481.06;1779650;79;25564;-51
2023/11/10 02:19:16;;;;;;;13.33;7.43;;;;;;;5.45;82.78;99482.95;1779988;79;25650;-51
2023/11/10 02:21:45;;;;;;;11.15;7.42;;;;;;;5.46;82.84;99472.46;1748874;82;25574;-53
2023/11/10 02:24:14;;;;;;;11.95;7.72;;;;;;;5.48;82.97;99468.15;1748939;82;27714;-53
2023/11/10 02:26:44;;;;;;;14.65;7.95;;;;;;;5.49;83.00;99465.17;1748779;80;25410;-52
2023/11/10 02:29:13;;;;;;;10.15;7.37;;;;;;;5.51;82.72;99466.22;1748850;80;25391;-52
2023/11/10 02:31:41;;;;;;;10.20;7.43;;;;;;;5.50;82.72;99457.39;1749019;82;26237;-53
2023/11/10 02:34:09;;;;;;;12.58;7.65;;;;;;;5.52;83.03;99458.44;1748883;80;25648;-52
2023/11/10 02:36:38;;;;;;;12.85;8.20;;;;;;;5.52;83.13;99457.09;1749071;82;28166;-51
2023/11/10 02:39:08;;;;;;;12.03;7.78;;;;;;;5.55;82.93;99453.27;1749045;82;26165;-51
2023/11/10 02:41:37;;;;;;;12.78;7.97;;;;;;;5.55;82.93;99453.27;1748836;80;25400;-54
2023/11/10 02:44:06;;;;;;;12.35;7.92;;;;;;;5.58;83.19;99454.03;1748771;82;25509;-52
2023/11/10 02:46:33;;;;;;;11.88;8.05;;;;;;;5.60;83.08;99451.84;1748933;82;25368;-51
2023/11/10 02:49:00;;;;;;;14.53;7.67;;;;;;;5.61;83.00;99440.00;1748750;82;27339;-52
2023/11/10 02:51:26;;;;;;;9.93;7.20;;;;;;;5.62;83.08;99440.81;1748719;80;25561;-50
2023/11/10 02:53:56;;;;;;;15.03;8.10;;;;;;;5.66;83.32;99442.36;1748790;82;25475;-52
2023/11/10 02:56:25;;;;;;;9.25;6.70;;;;;;;5.69;83.51;99445.80;1748872;80;25494;-53
2023/11/10 02:58:53;;;;;;;12.60;7.72;;;;;;;5.71;83.30;99447.07;1748791;80;25423;-50
2023/11/10 03:01:23;;;;;;;10.73;7.30;;;;;;;5.74;83.30;99449.72;1749068;82;27707;-51
2023/11/10 03:03:52;;;;;;;9.50;7.47;;;;;;;5.76;83.32;99444.84;1748742;80;25773;-55
2023/11/10 03:06:18;;;;;;;15.03;7.78;;;;;;;5.77;83.03;99443.73;1749082;80;25417;-54
2023/11/10 03:08:45;;;;;;;10.63;7.60;;;;;;;5.77;83.17;99445.08;1749430;80;26271;-54
2023/11/10 03:11:15;;;;;;;13.88;7.62;;;;;;;5.79;83.27;99446.39;1753962;81;25602;-54
2023/11/10 03:13:46;;;;;;;9.05;6.90;;;;;;;5.82;83.47;99444.98;1732854;81;27311;-55
2023/11/10 03:16:13;;;;;;;10.78;7.12;;;;;;;5.85;83.17;99437.69;1753886;81;25476;-52
2023/11/10 03:18:41;;;;;;;9.93;7.30;;;;;;;5.86;83.61;99437.94;1753879;81;25695;-54
2023/11/10 03:21:07;;;;;;;11.88;7.03;;;;;;;5.89;83.14;99443.25;1753843;81;25614;-51
2023/11/10 03:23:36;;;;;;;9.85;7.28;;;;;;;5.90;83.41;99434.11;1753918;81;25448;-51
2023/11/10 03:26:04;;;;;;;10.05;7.25;;;;;;;5.93;83.31;99444.27;1753897;81;27695;-50
2023/11/10 03:28:31;;;;;;;9.95;7.33;;;;;;;5.95;83.26;99447.44;1753703;81;25530;-50
2023/11/10 03:30:58;;;;;;;14.40;7.47;;;;;;;5.97;83.07;99442.03;1753794;81;25610;-51
2023/11/10 03:33:26;;;;;;;10.48;7.40;;;;;;;6.00;83.05;99445.23;1753849;81;25609;-51
2023/11/10 03:35:54;;;;;;;12.45;7.92;;;;;;;6.02;83.28;99453.22;1753845;81;25455;-51
2023/11/10 03:38:20;;;;;;;10.90;7.35;;;;;;;6.04;82.96;99433.58;1753817;81;28235;-51
2023/11/10 03:40:47;;;;;;;8.20;6.78;;;;;;;6.05;82.90;99435.73;1753742;81;25443;-50
2023/11/10 03:43:14;;;;;;;14.45;7.30;;;;;;;6.06;82.87;99429.25;1753834;81;25586;-51
2023/11/10 03:45:40;;;;;;;9.18;6.72;;;;;;;6.06;82.76;99432.76;1753820;81;25617;-51
2023/11/10 03:48:07;;;;;;;11.25;7.17;;;;;;;6.08;82.84;99434.59;1753853;81;25641;-52
2023/11/10 03:50:33;;;;;;;11.15;7.37;;;;;;;6.09;82.88;99428.11;1753789;81;27342;-52
2023/11/10 03:53:00;;;;;;;9.28;7.12;;;;;;;6.10;82.90;99420.87;1753762;81;26001;-52
2023/11/10 03:55:28;;;;;;;9.15;7.15;;;;;;;6.11;82.75;99421.09;1753823;81;25633;-51
2023/11/10 03:57:55;;;;;;;11.28;7.37;;;;;;;6.11;83.01;99417.06;1753865;81;25606;-53
2023/11/10 04:00:26;;;;;;;9.58;6.92;;;;;;;6.11;82.76;99417.06;1753940;81;25673;-51
2023/11/10 04:02:54;;;;;;;10.10;6.90;;;;;;;6.11;82.89;99422.44;1753965;81;27899;-51
2023/11/10 04:05:21;;;;;;;12.15;6.75;;;;;;;6.13;82.83;99414.87;1753812;81;25410;-51
2023/11/10 04:07:49;;;;;;;9.80;7.53;;;;;;;6.15;82.91;99415.39;1753869;81;25455;-51
2023/11/10 04:10:20;;;;;;;10.35;6.62;;;;;;;6.15;82.87;99422.10;1753677;81;26382;-52
2023/11/10 04:12:46;;;;;;;10.48;7.20;;;;;;;6.16;82.72;99412.41;1753842;81;25374;-52
2023/11/10 04:15:15;;;;;;;14.03;6.70;;;;;;;6.17;82.75;99418.56;1753896;81;27206;-51
2023/11/10 04:17:41;;;;;;;9.10;6.90;;;;;;;6.19;82.70;99415.02;1753877;81;33428;-52
2023/11/10 04:20:11;;;;;;;8.18;6.28;;;;;;;6.20;82.67;99412.59;1753836;81;25597;-51
2023/11/10 04:22:41;;;;;;;7.58;6.55;;;;;;;6.21;82.69;99408.80;1753950;81;26289;-55
2023/11/10 04:25:09;;;;;;;9.20;6.60;;;;;;;6.22;83.30;99413.64;1753875;81;25620;-52
2023/11/10 04:27:39;;;;;;;9.98;6.58;;;;;;;6.23;82.93;99400.45;1753819;81;27316;-55
2023/11/10 04:30:10;;;;;;;11.38;6.35;;;;;;;6.25;82.86;99395.56;1753707;81;25632;-55
2023/11/10 04:32:37;;;;;;;8.90;6.42;;;;;;;6.25;82.82;99409.80;1753830;81;25388;-51
2023/11/10 04:35:07;;;;;;;8.50;6.20;;;;;;;6.26;82.80;99392.58;1753729;81;26642;-51
2023/11/10 04:37:34;;;;;;;9.48;5.72;;;;;;;6.27;82.78;99392.05;1753845;81;25622;-51
2023/11/10 04:40:00;;;;;;;9.25;6.15;;;;;;;6.28;82.75;99382.35;1753795;81;28350;-53
2023/11/10 04:42:27;;;;;;;8.50;6.35;;;;;;;6.29;82.64;99381.23;1753700;81;25555;-51
2023/11/10 04:44:53;;;;;;;8.30;5.50;;;;;;;6.30;82.53;99383.36;1753778;81;25565;-51
2023/11/10 04:47:20;;;;;;;8.33;6.20;;;;;;;6.31;82.70;99380.94;1753737;81;26216;-53
2023/11/10 04:49:47;;;;;;;9.63;5.83;;;;;;;6.32;82.50;99379.85;1753794;81;25378;-52
2023/11/10 04:52:15;;;;;;;10.03;5.58;;;;;;;6.33;82.57;99376.86;1753839;81;27442;-51
2023/11/10 04:54:42;;;;;;;7.47;5.97;;;;;;;6.34;82.39;99376.31;1753696;81;25561;-52
2023/11/10 04:57:10;;;;;;;6.67;5.28;;;;;;;6.36;82.32;99385.64;1753770;81;25661;-51
2023/11/10 04:59:39;;;;;;;12.65;6.00;;;;;;;6.37;82.34;99385.11;1753724;81;26304;-51
2023/11/10 05:02:08;;;;;;;6.35;5.22;;;;;;;6.37;82.34;99386.45;1753464;81;25566;-53
2023/11/10 05:04:39;;;;;;;7.83;5.55;;;;;;;6.37;82.17;99382.42;1753798;81;27305;-52
2023/11/10 05:07:09;;;;;;;9.98;5.60;;;;;;;6.37;82.21;99391.83;1753763;81;25388;-53
2023/11/10 05:09:36;;;;;;;7.17;5.37;;;;;;;6.37;82.31;99383.77;1753803;80;25537;-53
2023/11/10 05:12:06;;;;;;;9.18;5.22;;;;;;;6.39;82.31;99384.81;1753766;81;26215;-52
2023/11/10 05:14:33;;;;;;;9.98;4.72;;;;;;;6.37;82.06;99382.42;1753843;81;25417;-51
2023/11/10 05:17:01;;;;;;;6.67;5.12;;;;;;;6.39;82.06;99384.81;1753786;81;27693;-51
2023/11/10 05:19:27;;;;;;;8.63;5.12;;;;;;;6.37;81.99;99387.80;1753697;81;25531;-51
2023/11/10 05:21:54;;;;;;;7.10;4.80;;;;;;;6.38;81.90;99382.65;1753775;81;25557;-52
2023/11/10 05:24:21;;;;;;;6.80;4.80;;;;;;;6.37;81.88;99382.42;1753715;81;25935;-51
2023/11/10 05:26:49;;;;;;;6.58;4.62;;;;;;;6.38;81.92;99383.99;1753783;81;25376;-55
2023/11/10 05:29:16;;;;;;;5.87;4.73;;;;;;;6.38;81.91;99372.47;1754029;81;28040;-55
2023/11/10 05:31:45;;;;;;;6.42;4.50;;;;;;;6.39;81.94;99382.13;1753639;81;25456;-53
2023/11/10 05:34:16;;;;;;;;;;;;;;;6.39;81.93;99379.44;1756425;81;25648;-54
2023/11/10 05:36:42;;;;;;;8.48;4.75;;;;;;;6.40;81.99;99380.45;1753763;81;26671;-54
2023/11/10 05:39:08;;;;;;;8.03;4.45;;;;;;;6.40;81.91;99384.48;1753775;81;25562;-53
2023/11/10 05:41:36;;;;;;;9.38;5.08;;;;;;;6.42;81.92;99379.62;1753758;81;27978;-54
2023/11/10 05:44:05;;;;;;;5.62;4.42;;;;;;;6.43;82.03;99387.12;1753728;81;25618;-52
2023/11/10 05:46:34;;;;;;;6.78;4.45;;;;;;;6.42;81.90;99383.66;1754219;81;25578;-53
2023/11/10 05:49:02;;;;;;;5.12;4.50;;;;;;;6.43;81.90;99384.44;1753908;81;26528;-52
2023/11/10 05:51:31;;;;;;;6.00;4.33;;;;;;;6.43;81.81;99380.41;1754185;81;25392;-53
2023/11/10 05:53:59;;;;;;;6.58;4.03;;;;;;;6.45;81.82;99375.52;1753929;81;28133;-53
2023/11/10 05:56:28;;;;;;;8.18;4.53;;;;;;;6.44;81.79;99380.11;1754062;81;25970;-51
2023/11/10 05:58:55;;;;;;;5.60;4.43;;;;;;;6.47;81.69;99383.53;1754167;81;25416;-52
2023/11/10 06:01:28;;;;;;;11.00;4.37;;;;;;;6.47;81.69;99383.53;1753858;81;26180;-50
2023/11/10 06:03:56;;;;;;;7.65;4.33;;;;;;;6.48;81.57;99389.69;1753990;81;25538;-52
2023/11/10 06:06:27;;;;;;;10.95;4.42;;;;;;;6.49;81.59;99385.36;1754126;81;27765;-56
2023/11/10 06:08:55;;;;;;;7.05;4.65;;;;;;;6.48;81.54;99385.66;1753874;81;25469;-52
2023/11/10 06:11:24;;;;;;;6.45;4.58;;;;;;;6.51;81.48;99383.72;1749652;80;25371;-52
2023/11/10 06:13:55;;;;;;;6.53;4.33;;;;;;;6.52;81.42;99382.08;1738410;82;26162;-52
2023/11/10 06:16:23;;;;;;;5.12;4.20;;;;;;;6.53;81.40;99378.83;1748198;80;25748;-55
2023/11/10 06:18:50;;;;;;;11.05;4.25;;;;;;;6.55;81.25;99382.00;1748804;80;27900;-54
2023/11/10 06:21:21;;;;;;;7.08;3.75;;;;;;;6.56;81.20;99391.66;1748727;82;25570;-52
2023/11/10 06:23:49;;;;;;;7.30;4.05;;;;;;;6.57;81.11;99379.02;1748632;81;25605;-51
2023/11/10 06:26:17;;;;;;;10.72;4.08;;;;;;;6.59;81.10;99386.22;1748169;80;25995;-56
2023/11/10 06:28:46;;;;;;;8.95;4.50;;;;;;;6.59;81.00;99372.25;1748846;82;25617;-54
2023/11/10 06:31:14;;;;;;;8.65;4.17;;;;;;;6.60;80.93;99382.45;1748914;82;27338;-54
2023/11/10 06:33:41;;;;;;;7.42;4.22;;;;;;;6.60;80.85;99381.09;1748741;82;25753;-52
2023/11/10 06:36:08;;;;;;;9.83;3.77;;;;;;;6.63;80.74;99376.47;1748830;80;25459;-57
2023/11/10 06:38:36;;;;;;;5.87;3.87;;;;;;;6.65;80.77;99371.02;1748803;82;26247;-56
2023/11/10 06:41:04;;;;;;;13.03;4.28;;;;;;;6.67;80.66;99382.25;1749126;80;25453;-56
2023/11/10 06:43:31;;;;;;;10.03;4.37;;;;;;;6.68;80.42;99375.79;1748823;82;27318;-53
2023/11/10 06:45:58;;;;;;;7.17;3.60;;;;;;;6.69;80.38;99376.05;1748791;80;25658;-56
2023/11/10 06:48:25;;;;;;;7.25;3.92;;;;;;;6.72;80.43;99381.34;1748849;82;25647;-52
2023/11/10 06:50:51;;;;;;;8.98;4.58;;;;;;;6.75;80.26;99388.02;1748862;82;25933;-55
2023/11/10 06:53:18;;;;;;;4.40;3.55;;;;;;;6.75;80.17;99387.45;1748892;80;25554;-51
2023/11/10 06:55:44;;;;;;;8.78;4.33;;;;;;;6.77;80.16;99386.59;1748789;82;28351;-57
2023/11/10 06:58:11;;;;;;;5.20;3.62;;;;;;;6.79;80.05;99379.58;1748768;80;25473;-52
2023/11/10 07:00:38;;;;;;;11.08;3.90;;;;;;;6.83;79.98;99389.42;1748780;82;25580;-53
2023/11/10 07:03:11;;;;;;;6.60;3.90;;;;;;;6.86;79.88;99386.66;1748122;80;26260;-54
2023/11/10 07:05:34;;;;;;;8.35;4.20;;;;;;;6.88;79.96;99389.30;1747038;81;25754;-52
2023/11/10 07:08:01;;;;;;;5.75;4.00;;;;;;;6.91;79.76;99382.50;1747378;82;27312;-53
2023/11/10 07:10:28;;;;;;;6.10;4.20;;;;;;;6.94;79.56;99379.20;1748955;80;25673;-54
2023/11/10 07:12:55;;;;;;;6.45;4.12;;;;;;;7.00;79.53;99386.58;1752445;81;25776;-54
2023/11/10 07:15:22;;;;;;;5.50;4.12;;;;;;;7.02;79.38;99379.81;1752369;81;25661;-55
2023/11/10 07:17:48;;;;;;;7.20;4.08;;;;;;;7.06;79.28;99388.05;1752457;81;25633;-51
2023/11/10 07:20:15;;;;;;;12.03;4.10;;;;;;;7.07;78.98;99379.69;1753868;81;27317;-54
2023/11/10 07:22:42;;;;;;;6.95;4.08;;;;;;;7.11;78.83;99379.86;1753752;81;26063;-53
2023/11/10 07:25:10;;;;;;;7.92;3.30;;;;;;;7.14;78.72;99381.16;1753869;81;25452;-53
2023/11/10 07:27:37;;;;;;;4.85;3.67;;;;;;;7.16;78.68;99385.11;1753854;81;26399;-51
2023/11/10 07:30:06;;;;;;;6.37;4.22;;;;;;;7.18;78.61;99370.80;1753896;81;25370;-53
2023/11/10 07:32:33;;;;;;;9.63;3.90;;;;;;;7.22;78.51;99376.34;1753874;81;27334;-52
2023/11/10 07:35:00;;;;;;;8.15;4.42;;;;;;;7.23;78.46;99373.35;1753824;81;25608;-53
2023/11/10 07:37:27;;;;;;;6.55;4.20;;;;;;;7.24;78.32;99374.95;1753873;81;25382;-54
2023/11/10 07:39:55;;;;;;;6.40;4.33;;;;;;;7.27;78.16;99377.56;1753838;81;25614;-54
2023/11/10 07:42:21;;;;;;;8.60;4.60;;;;;;;7.27;78.13;99378.91;1753871;81;25566;-52
2023/11/10 07:44:50;;;;;;;7.55;4.17;;;;;;;7.31;77.99;99381.23;1753880;81;26831;-54
2023/11/10 07:47:18;;;;;;;6.95;4.30;;;;;;;7.34;77.89;99375.77;1753863;81;25610;-53
2023/11/10 07:49:47;;;;;;;8.78;4.60;;;;;;;7.35;77.85;99386.23;1753909;81;25587;-55
2023/11/10 07:52:13;;;;;;;8.08;3.90;;;;;;;7.38;77.96;99379.45;1753799;81;26003;-55
2023/11/10 07:54:44;;;;;;;6.62;4.12;;;;;;;7.40;77.68;99381.27;1753972;81;25400;-54
2023/11/10 07:57:12;;;;;;;5.33;3.90;;;;;;;7.43;77.97;99372.03;1754024;81;27865;-55
2023/11/10 07:59:40;;;;;;;7.12;4.10;;;;;;;7.46;77.59;99371.97;1753712;81;25861;-54
2023/11/10 08:02:09;;;;;;;7.00;4.42;;;;;;;7.50;77.79;99371.58;1754002;81;25553;-53
2023/11/10 08:04:36;;;;;;;6.45;4.28;;;;;;;7.54;77.79;99367.16;1754079;81;26387;-53
2023/11/10 08:07:06;;;;;;;8.43;4.20;;;;;;;7.61;77.86;99374.25;1753870;81;25142;-59
2023/11/10 08:09:34;;;;;;;12.55;3.75;;;;;;;7.66;77.45;99370.60;1753989;81;28068;-51
2023/11/10 08:12:04;;;;;;;9.78;4.92;;;;;;;7.67;77.15;99372.20;1749411;80;25731;-53
2023/11/10 08:14:31;;;;;;;8.83;4.65;;;;;;;7.70;77.13;99367.55;1748922;80;25390;-55
2023/11/10 08:16:58;;;;;;;13.40;4.92;;;;;;;7.71;77.19;99369.11;1748766;80;25637;-54
2023/11/10 08:19:28;;;;;;;10.45;4.42;;;;;;;7.76;76.95;99370.31;1748781;81;25629;-54
2023/11/10 08:21:55;;;;;;;7.25;4.15;;;;;;;7.79;76.95;99363.53;1748898;80;30266;-54
2023/11/10 08:24:26;;;;;;;9.08;4.47;;;;;;;7.80;76.59;99369.16;1748672;81;25777;-55
2023/11/10 08:26:55;;;;;;;5.87;3.67;;;;;;;7.82;76.80;99363.70;1748904;80;25602;-52
2023/11/10 08:29:23;;;;;;;9.60;4.37;;;;;;;7.88;76.81;99368.93;1748914;80;25601;-53
2023/11/10 08:31:52;;;;;;;9.58;4.37;;;;;;;7.91;76.65;99372.34;1748874;80;25700;-51
2023/11/10 08:34:22;;;;;;;9.90;5.05;;;;;;;7.95;76.33;99371.95;1748766;82;27552;-53
2023/11/10 08:36:50;;;;;;;6.92;4.70;;;;;;;7.98;76.31;99371.33;1748728;80;25557;-54
2023/11/10 08:39:21;;;;;;;13.08;4.72;;;;;;;8.00;76.43;99373.16;1748748;80;25678;-53
2023/11/10 08:41:52;;;;;;;6.70;4.65;;;;;;;8.07;76.17;99371.34;1748774;80;25966;-60
2023/11/10 08:44:24;;;;;;;22.07;14.28;;;;;;;8.11;76.01;99383.87;1748813;80;25641;-59
2023/11/10 08:46:50;;;;;;;9.98;5.05;;;;;;;8.16;75.72;99389.67;1748844;82;27337;-50
2023/11/10 08:49:19;;;;;;;7.70;4.97;;;;;;;8.22;75.95;99381.66;1748612;82;25636;-52
2023/11/10 08:51:48;;;;;;;7.12;4.80;;;;;;;8.35;76.30;99383.98;1748820;82;25411;-51
2023/11/10 08:54:18;;;;;;;9.35;4.47;;;;;;;8.52;76.65;99379.98;1748712;82;25609;-51
2023/11/10 08:56:48;;;;;;;10.48;5.00;;;;;;;8.75;76.49;99380.61;1748692;82;25546;-51
2023/11/10 08:59:14;;;;;;;;;;;;;;;8.95;75.89;99375.09;1751278;82;27683;-51
2023/11/10 09:01:44;;;;;;;11.95;4.58;;;;;;;9.15;75.61;99373.63;1748540;82;25994;-51
2023/11/10 09:04:11;;;;;;;8.70;5.50;;;;;;;9.44;75.66;99376.73;1748736;80;25477;-52
2023/11/10 09:06:39;;;;;;;13.00;4.97;;;;;;;9.65;74.73;99372.73;1748643;82;25616;-51
2023/11/10 09:09:08;;;;;;;10.08;5.17;;;;;;;9.86;73.21;99375.52;1748825;82;33533;-55
2023/11/10 09:11:35;;;;;;;9.35;4.75;;;;;;;9.91;72.84;99382.86;1752862;80;26818;-54
2023/11/10 09:14:06;;;;;;;8.38;4.58;;;;;;;9.99;71.96;99378.51;1756367;80;25386;-54
2023/11/10 09:16:34;;;;;;;8.38;5.10;;;;;;;10.03;71.37;99386.21;1756496;81;25373;-52
2023/11/10 09:19:05;;;;;;;9.00;5.08;;;;;;;10.03;70.78;99383.51;1756471;80;25788;-52
2023/11/10 09:21:35;;;;;;;7.15;4.60;;;;;;;10.18;71.79;99379.98;1756655;81;25467;-51
2023/11/10 09:24:02;;;;;;;12.68;5.00;;;;;;;10.32;70.92;99369.76;1756732;81;27296;-52
2023/11/10 09:26:30;;;;;;;10.63;5.37;;;;;;;10.40;70.44;99377.02;1756501;80;25548;-52
2023/11/10 09:28:56;;;;;;;16.77;9.03;;;;;;;10.52;69.54;99372.23;1756614;81;25419;-59
2023/11/10 09:31:23;;;;;;;53.23;42.05;;;;;;;10.64;68.45;99389.05;1756516;81;26001;-60
2023/11/10 09:33:53;;;;;;;15.95;8.58;;;;;;;10.72;68.45;99378.72;1756619;80;25581;-60
2023/11/10 09:36:24;;;;;;;8.48;4.72;;;;;;;10.78;69.32;99370.64;1756735;80;27315;-59
2023/11/10 09:38:50;;;;;;;8.98;4.80;;;;;;;10.92;69.14;99375.77;1756444;81;25533;-60
2023/11/10 09:41:21;;;;;;;5.83;4.35;;;;;;;11.10;69.78;99366.92;1737520;81;25669;-58
2023/11/10 09:43:49;;;;;;;11.83;4.75;;;;;;;11.33;69.03;99373.27;1756493;80;25625;-60
2023/11/10 09:46:20;;;;;;;7.10;4.37;;;;;;;11.59;68.35;99360.22;1756664;81;25392;-58
2023/11/10 09:48:51;;;;;;;7.72;4.55;;;;;;;11.91;68.94;99353.67;1756689;81;27726;-60
2023/11/10 09:51:22;;;;;;;9.38;4.45;;;;;;;12.18;67.51;99354.66;1756579;80;25594;-62
2023/11/10 09:53:52;;;;;;;7.95;4.67;;;;;;;12.30;65.33;99358.69;1756558;81;25556;-64
2023/11/10 09:56:22;;;;;;;7.35;4.28;;;;;;;12.36;65.00;99357.88;1756587;80;25684;-61
2023/11/10 09:58:52;;;;;;;9.28;4.15;;;;;;;12.68;65.40;99348.73;1756731;80;25601;-63
2023/11/10 10:01:19;;;;;;;6.92;4.40;;;;;;;13.35;68.41;99350.88;1756674;81;27592;-58
2023/11/10 10:03:48;;;;;;;12.50;5.33;;;;;;;14.20;64.63;99358.07;1756419;80;25990;-57
2023/11/10 10:06:18;;;;;;;8.33;5.40;;;;;;;14.55;65.26;99359.94;1756849;80;25511;-56
2023/11/10 10:08:44;;;;;;;8.98;4.55;;;;;;;14.86;61.91;99357.45;1756096;81;26166;-52
2023/11/10 10:11:13;;;;;;;10.40;4.97;;;;;;;14.99;59.92;99343.89;1755387;81;25511;-57
2023/11/10 10:13:43;;;;;;;6.75;3.80;;;;;;;15.54;57.42;99331.95;1755385;80;27359;-53
2023/11/10 10:16:12;;;;;;;7.67;4.60;;;;;;;16.27;58.75;99331.84;1756443;81;25675;-53
2023/11/10 10:18:42;;;;;;;7.45;4.47;;;;;;;16.46;55.20;99324.85;1756685;81;25575;-52
2023/11/10 10:21:11;;;;;;;8.75;4.80;;;;;;;16.46;56.00;99317.25;1737454;81;26328;-53
2023/11/10 10:23:38;;;;;;;6.12;4.40;;;;;;;16.74;54.43;99324.99;1756673;80;25370;-53
2023/11/10 10:26:12;;;;;;;8.75;4.97;;;;;;;16.74;51.62;99320.89;1756783;80;27311;-52
2023/11/10 10:28:39;;;;;;;9.95;5.47;;;;;;;16.51;53.13;99315.56;1756541;80;25540;-55
2023/11/10 10:31:11;;;;;;;9.83;5.00;;;;;;;16.46;52.83;99310.44;1756587;80;26952;-53
2023/11/10 10:33:36;;;;;;;;;;;;;;;16.65;53.16;99312.97;1759190;80;25797;-55
2023/11/10 10:36:08;;;;;;;7.12;5.05;;;;;;;16.70;51.07;99299.02;1756567;80;25389;-54
2023/11/10 10:38:36;;;;;;;12.45;5.33;;;;;;;16.54;52.05;99303.31;1756623;80;27327;-56
2023/11/10 10:41:06;;;;;;;9.83;5.12;;;;;;;16.71;50.68;99295.70;1756530;80;25472;-55
2023/11/10 10:43:34;;;;;;;15.32;5.10;;;;;;;16.72;52.27;99298.05;1756616;80;25495;-57
2023/11/10 10:46:04;;;;;;;10.90;6.35;;;;;;;16.50;51.12;99294.31;1756495;81;25675;-54
2023/11/10 10:48:37;;;;;;;8.15;5.40;;;;;;;16.34;51.74;99296.45;1756550;80;25582;-55
2023/11/10 10:51:07;;;;;;;9.95;4.97;;;;;;;16.10;51.89;99289.54;1756447;80;27346;-53
2023/11/10 10:53:37;;;;;;;8.28;5.10;;;;;;;16.04;52.38;99284.41;1756433;81;25503;-54
2023/11/10 10:56:09;;;;;;;15.30;5.08;;;;;;;15.77;51.79;99278.20;1756452;81;25456;-53
2023/11/10 10:58:40;;;;;;;7.70;4.95;;;;;;;15.47;50.93;99273.45;1756502;80;25610;-55
2023/11/10 11:01:11;;;;;;;8.08;5.12;;;;;;;15.35;53.40;99276.97;1756615;81;25403;-56
2023/11/10 11:04:17;;;;;;;8.68;5.05;;;;;;;15.39;53.85;99270.99;1756502;81;28077;-60
2023/11/10 11:07:05;;;;;;;8.60;5.03;;;;;;;15.31;53.20;99270.89;1756464;80;25974;-61
2023/11/10 11:09:58;;;;;;;11.30;4.80;;;;;;;15.04;52.76;99263.25;1756786;80;25602;-62
2023/11/10 11:13:04;;;;;;;6.67;4.35;;;;;;;15.14;54.89;99256.42;1755732;80;26596;-64
2023/11/10 11:15:45;;;;;;;9.48;5.05;;;;;;;15.60;55.03;99248.15;1755826;81;25569;-64
2023/11/10 11:18:32;;;;;;;8.93;5.35;;;;;;;15.86;54.11;99243.27;1756634;80;28402;-64
2023/11/10 11:21:04;;;;;;;9.80;4.75;;;;;;;15.97;53.31;99246.14;1756368;80;25456;-64
2023/11/10 11:23:35;;;;;;;10.53;5.22;;;;;;;15.97;52.30;99252.96;1756634;81;25407;-63
2023/11/10 11:26:07;;;;;;;8.68;5.15;;;;;;;15.83;51.91;99252.20;1756448;81;25651;-64
2023/11/10 11:28:38;;;;;;;8.78;5.70;;;;;;;15.74;53.13;99234.52;1756607;80;25455;-62
2023/11/10 11:31:13;;;;;;;8.88;4.95;;;;;;;15.83;52.13;99247.30;1756498;81;27197;-59
2023/11/10 11:33:52;;;;;;;7.92;5.03;;;;;;;15.64;51.57;99248.20;1756490;80;26026;-57
2023/11/10 11:36:22;;;;;;;8.18;5.50;;;;;;;15.64;52.81;99248.98;1756528;81;25617;-58
2023/11/10 11:38:51;;;;;;;8.10;5.10;;;;;;;15.59;51.96;99252.60;1756458;81;25663;-62
2023/11/10 11:41:22;;;;;;;7.95;4.87;;;;;;;15.38;52.24;99257.17;1756556;81;25380;-61
2023/11/10 14:38:35;;;;;;;11.65;5.90;;;;;;;10.10;66.98;99204.09;1759626;78;27091;-70